sensor_id;sensor_type;location;lat;lon;timestamp;temperature;humidity
80743;SHT31;70142;50.894;6.052;2023-12-07T00:01:44;3.67;82.80
80743;SHT31;70142;50.894;6.052;2023-12-07T00:04:19;3.60;83.04
80743;SHT31;70142;50.894;6.052;2023-12-07T00:06:52;3.54;82.90
80743;SHT31;70142;50.894;6.052;2023-12-07T00:09:26;3.57;83.24
80743;SHT31;70142;50.894;6.052;2023-12-07T00:11:59;3.74;82.81
80743;SHT31;70142;50.894;6.052;2023-12-07T00:14:32;3.78;82.64
80743;SHT31;70142;50.894;6.052;2023-12-07T00:17:05;3.64;82.31
80743;SHT31;70142;50.894;6.052;2023-12-07T00:19:40;3.63;82.42
80743;SHT31;70142;50.894;6.052;2023-12-07T00:22:13;3.50;82.71
80743;SHT31;70142;50.894;6.052;2023-12-07T00:24:46;3.33;82.63
80743;SHT31;70142;50.894;6.052;2023-12-07T00:27:20;3.10;82.41
80743;SHT31;70142;50.894;6.052;2023-12-07T00:29:53;2.90;82.27
80743;SHT31;70142;50.894;6.052;2023-12-07T00:32:26;3.00;83.02
80743;SHT31;70142;50.894;6.052;2023-12-07T00:35:01;2.96;82.61
80743;SHT31;70142;50.894;6.052;2023-12-07T00:37:35;2.95;83.11
80743;SHT31;70142;50.894;6.052;2023-12-07T00:40:08;2.96;83.02
80743;SHT31;70142;50.894;6.052;2023-12-07T00:42:42;2.79;82.53
80743;SHT31;70142;50.894;6.052;2023-12-07T00:45:16;2.89;83.17
80743;SHT31;70142;50.894;6.052;2023-12-07T00:47:49;2.96;82.89
80743;SHT31;70142;50.894;6.052;2023-12-07T00:50:24;2.86;82.67
80743;SHT31;70142;50.894;6.052;2023-12-07T00:52:57;2.71;82.13
80743;SHT31;70142;50.894;6.052;2023-12-07T00:55:30;2.58;81.77
80743;SHT31;70142;50.894;6.052;2023-12-07T00:58:04;2.53;83.24
80743;SHT31;70142;50.894;6.052;2023-12-07T01:00:37;2.58;83.27
80743;SHT31;70142;50.894;6.052;2023-12-07T01:03:11;2.45;83.13
80743;SHT31;70142;50.894;6.052;2023-12-07T01:05:45;2.49;83.13
80743;SHT31;70142;50.894;6.052;2023-12-07T01:08:19;2.38;83.05
80743;SHT31;70142;50.894;6.052;2023-12-07T01:10:52;2.38;83.50
80743;SHT31;70142;50.894;6.052;2023-12-07T01:13:25;2.28;83.41
80743;SHT31;70142;50.894;6.052;2023-12-07T01:15:58;2.25;83.48
80743;SHT31;70142;50.894;6.052;2023-12-07T01:18:31;2.28;83.36
80743;SHT31;70142;50.894;6.052;2023-12-07T01:21:06;2.31;84.07
80743;SHT31;70142;50.894;6.052;2023-12-07T01:23:39;2.34;84.18
80743;SHT31;70142;50.894;6.052;2023-12-07T01:26:12;2.24;83.89
80743;SHT31;70142;50.894;6.052;2023-12-07T01:28:46;2.22;83.88
80743;SHT31;70142;50.894;6.052;2023-12-07T01:31:19;2.24;84.00
80743;SHT31;70142;50.894;6.052;2023-12-07T01:33:52;2.35;84.36
80743;SHT31;70142;50.894;6.052;2023-12-07T01:36:27;2.28;84.49
80743;SHT31;70142;50.894;6.052;2023-12-07T01:39:00;2.31;84.33
80743;SHT31;70142;50.894;6.052;2023-12-07T01:41:33;2.34;84.32
80743;SHT31;70142;50.894;6.052;2023-12-07T01:44:06;2.39;84.24
80743;SHT31;70142;50.894;6.052;2023-12-07T01:46:40;2.29;83.69
80743;SHT31;70142;50.894;6.052;2023-12-07T01:49:17;2.42;84.39
80743;SHT31;70142;50.894;6.052;2023-12-07T01:51:52;2.42;83.87
80743;SHT31;70142;50.894;6.052;2023-12-07T01:54:26;2.41;83.80
80743;SHT31;70142;50.894;6.052;2023-12-07T01:56:59;2.50;83.90
80743;SHT31;70142;50.894;6.052;2023-12-07T01:59:33;2.49;83.78
80743;SHT31;70142;50.894;6.052;2023-12-07T02:02:07;2.32;83.02
80743;SHT31;70142;50.894;6.052;2023-12-07T02:04:40;2.31;83.04
80743;SHT31;70142;50.894;6.052;2023-12-07T02:07:18;2.24;82.61
80743;SHT31;70142;50.894;6.052;2023-12-07T02:09:52;2.14;82.58
80743;SHT31;70142;50.894;6.052;2023-12-07T02:12:26;2.18;82.87
80743;SHT31;70142;50.894;6.052;2023-12-07T02:15:03;2.20;82.89
80743;SHT31;70142;50.894;6.052;2023-12-07T02:17:45;2.17;82.62
80743;SHT31;70142;50.894;6.052;2023-12-07T02:20:29;2.22;82.96
80743;SHT31;70142;50.894;6.052;2023-12-07T02:23:07;1.93;82.60
80743;SHT31;70142;50.894;6.052;2023-12-07T02:25:44;1.83;82.70
80743;SHT31;70142;50.894;6.052;2023-12-07T02:28:22;1.78;82.53
80743;SHT31;70142;50.894;6.052;2023-12-07T02:30:55;1.74;83.00
80743;SHT31;70142;50.894;6.052;2023-12-07T02:33:29;1.81;83.02
80743;SHT31;70142;50.894;6.052;2023-12-07T02:36:02;1.73;82.35
80743;SHT31;70142;50.894;6.052;2023-12-07T02:38:37;1.64;82.34
80743;SHT31;70142;50.894;6.052;2023-12-07T02:41:11;1.70;82.64
80743;SHT31;70142;50.894;6.052;2023-12-07T02:43:48;1.63;82.78
80743;SHT31;70142;50.894;6.052;2023-12-07T02:46:22;1.54;82.85
80743;SHT31;70142;50.894;6.052;2023-12-07T02:48:57;1.57;83.36
80743;SHT31;70142;50.894;6.052;2023-12-07T02:51:30;1.56;83.50
80743;SHT31;70142;50.894;6.052;2023-12-07T02:54:03;1.63;83.18
80743;SHT31;70142;50.894;6.052;2023-12-07T02:56:37;1.60;83.50
80743;SHT31;70142;50.894;6.052;2023-12-07T02:59:11;1.42;83.83
80743;SHT31;70142;50.894;6.052;2023-12-07T03:01:44;1.53;84.13
80743;SHT31;70142;50.894;6.052;2023-12-07T03:04:18;1.49;83.36
80743;SHT31;70142;50.894;6.052;2023-12-07T03:06:51;1.50;83.48
80743;SHT31;70142;50.894;6.052;2023-12-07T03:09:24;1.46;83.54
80743;SHT31;70142;50.894;6.052;2023-12-07T03:12:00;1.56;83.86
80743;SHT31;70142;50.894;6.052;2023-12-07T03:14:34;1.57;83.77
80743;SHT31;70142;50.894;6.052;2023-12-07T03:17:07;1.60;83.70
80743;SHT31;70142;50.894;6.052;2023-12-07T03:19:41;1.50;83.44
80743;SHT31;70142;50.894;6.052;2023-12-07T03:22:15;1.42;83.36
80743;SHT31;70142;50.894;6.052;2023-12-07T03:24:51;1.35;83.28
80743;SHT31;70142;50.894;6.052;2023-12-07T03:27:24;1.26;83.58
80743;SHT31;70142;50.894;6.052;2023-12-07T03:29:59;1.25;83.86
80743;SHT31;70142;50.894;6.052;2023-12-07T03:32:32;1.25;84.01
80743;SHT31;70142;50.894;6.052;2023-12-07T03:35:08;1.30;83.54
80743;SHT31;70142;50.894;6.052;2023-12-07T03:37:41;1.39;83.05
80743;SHT31;70142;50.894;6.052;2023-12-07T03:40:15;1.38;83.00
80743;SHT31;70142;50.894;6.052;2023-12-07T03:42:49;1.42;83.11
80743;SHT31;70142;50.894;6.052;2023-12-07T03:45:29;1.26;83.01
80743;SHT31;70142;50.894;6.052;2023-12-07T03:48:02;1.22;83.30
80743;SHT31;70142;50.894;6.052;2023-12-07T03:50:36;1.12;82.69
80743;SHT31;70142;50.894;6.052;2023-12-07T03:53:09;1.29;82.80
80743;SHT31;70142;50.894;6.052;2023-12-07T03:55:43;1.29;82.70
80743;SHT31;70142;50.894;6.052;2023-12-07T03:58:16;1.12;82.70
80743;SHT31;70142;50.894;6.052;2023-12-07T04:00:51;1.13;83.08
80743;SHT31;70142;50.894;6.052;2023-12-07T04:03:24;1.09;83.47
80743;SHT31;70142;50.894;6.052;2023-12-07T04:06:00;1.05;83.33
80743;SHT31;70142;50.894;6.052;2023-12-07T04:08:36;0.93;83.25
80743;SHT31;70142;50.894;6.052;2023-12-07T04:11:09;0.98;83.52
80743;SHT31;70142;50.894;6.052;2023-12-07T04:13:44;1.03;83.62
80743;SHT31;70142;50.894;6.052;2023-12-07T04:16:18;1.16;83.44
80743;SHT31;70142;50.894;6.052;2023-12-07T04:18:52;1.03;83.95
80743;SHT31;70142;50.894;6.052;2023-12-07T04:21:25;0.99;84.05
80743;SHT31;70142;50.894;6.052;2023-12-07T04:23:58;0.95;84.27
80743;SHT31;70142;50.894;6.052;2023-12-07T04:26:31;0.81;84.54
80743;SHT31;70142;50.894;6.052;2023-12-07T04:29:05;0.84;84.42
80743;SHT31;70142;50.894;6.052;2023-12-07T04:31:39;0.82;84.53
80743;SHT31;70142;50.894;6.052;2023-12-07T04:34:13;0.78;84.25
80743;SHT31;70142;50.894;6.052;2023-12-07T04:36:46;0.92;84.23
80743;SHT31;70142;50.894;6.052;2023-12-07T04:39:19;0.96;83.67
80743;SHT31;70142;50.894;6.052;2023-12-07T04:41:53;0.88;83.17
80743;SHT31;70142;50.894;6.052;2023-12-07T04:44:26;0.92;83.27
80743;SHT31;70142;50.894;6.052;2023-12-07T04:47:01;0.96;83.17
80743;SHT31;70142;50.894;6.052;2023-12-07T04:49:35;1.13;83.18
80743;SHT31;70142;50.894;6.052;2023-12-07T04:52:08;1.08;82.98
80743;SHT31;70142;50.894;6.052;2023-12-07T04:54:41;1.08;83.16
80743;SHT31;70142;50.894;6.052;2023-12-07T04:57:14;1.11;82.91
80743;SHT31;70142;50.894;6.052;2023-12-07T04:59:48;1.16;82.55
80743;SHT31;70142;50.894;6.052;2023-12-07T05:02:22;1.11;82.45
80743;SHT31;70142;50.894;6.052;2023-12-07T05:04:56;0.91;82.40
80743;SHT31;70142;50.894;6.052;2023-12-07T05:07:29;0.89;82.62
80743;SHT31;70142;50.894;6.052;2023-12-07T05:10:03;0.84;81.98
80743;SHT31;70142;50.894;6.052;2023-12-07T05:12:36;0.89;82.08
80743;SHT31;70142;50.894;6.052;2023-12-07T05:15:10;0.78;81.42
80743;SHT31;70142;50.894;6.052;2023-12-07T05:17:46;0.62;82.34
80743;SHT31;70142;50.894;6.052;2023-12-07T05:20:20;0.62;82.90
80743;SHT31;70142;50.894;6.052;2023-12-07T05:22:56;0.65;82.91
80743;SHT31;70142;50.894;6.052;2023-12-07T05:25:29;0.72;82.31
80743;SHT31;70142;50.894;6.052;2023-12-07T05:28:02;0.67;81.76
80743;SHT31;70142;50.894;6.052;2023-12-07T05:30:36;0.53;82.16
80743;SHT31;70142;50.894;6.052;2023-12-07T05:33:11;0.61;82.34
80743;SHT31;70142;50.894;6.052;2023-12-07T05:35:45;0.71;81.94
80743;SHT31;70142;50.894;6.052;2023-12-07T05:38:18;0.72;81.97
80743;SHT31;70142;50.894;6.052;2023-12-07T05:40:51;0.65;82.16
80743;SHT31;70142;50.894;6.052;2023-12-07T05:43:25;0.68;82.16
80743;SHT31;70142;50.894;6.052;2023-12-07T05:46:01;0.62;82.15
80743;SHT31;70142;50.894;6.052;2023-12-07T05:48:36;0.43;81.78
80743;SHT31;70142;50.894;6.052;2023-12-07T05:51:12;0.38;81.76
80743;SHT31;70142;50.894;6.052;2023-12-07T05:53:47;0.31;81.35
80743;SHT31;70142;50.894;6.052;2023-12-07T05:56:21;0.27;81.42
80743;SHT31;70142;50.894;6.052;2023-12-07T05:58:54;0.38;82.28
80743;SHT31;70142;50.894;6.052;2023-12-07T06:01:27;0.37;81.90
80743;SHT31;70142;50.894;6.052;2023-12-07T06:04:02;0.41;82.20
80743;SHT31;70142;50.894;6.052;2023-12-07T06:06:36;0.37;81.95
80743;SHT31;70142;50.894;6.052;2023-12-07T06:09:09;0.36;81.85
80743;SHT31;70142;50.894;6.052;2023-12-07T06:11:43;0.26;81.59
80743;SHT31;70142;50.894;6.052;2023-12-07T06:14:16;0.38;82.36
80743;SHT31;70142;50.894;6.052;2023-12-07T06:16:49;0.48;82.53
80743;SHT31;70142;50.894;6.052;2023-12-07T06:19:24;0.36;81.95
80743;SHT31;70142;50.894;6.052;2023-12-07T06:21:57;0.27;82.08
80743;SHT31;70142;50.894;6.052;2023-12-07T06:24:30;0.27;82.20
80743;SHT31;70142;50.894;6.052;2023-12-07T06:27:04;0.26;82.29
80743;SHT31;70142;50.894;6.052;2023-12-07T06:29:38;0.18;82.05
80743;SHT31;70142;50.894;6.052;2023-12-07T06:32:12;0.23;83.30
80743;SHT31;70142;50.894;6.052;2023-12-07T06:34:49;0.31;83.02
80743;SHT31;70142;50.894;6.052;2023-12-07T06:37:22;0.47;82.33
80743;SHT31;70142;50.894;6.052;2023-12-07T06:39:56;0.33;82.28
80743;SHT31;70142;50.894;6.052;2023-12-07T06:42:31;0.38;82.95
80743;SHT31;70142;50.894;6.052;2023-12-07T06:45:05;0.28;83.79
80743;SHT31;70142;50.894;6.052;2023-12-07T06:47:43;0.26;83.88
80743;SHT31;70142;50.894;6.052;2023-12-07T06:50:17;0.07;83.82
80743;SHT31;70142;50.894;6.052;2023-12-07T06:52:50;0.07;83.86
80743;SHT31;70142;50.894;6.052;2023-12-07T06:55:26;0.28;84.35
80743;SHT31;70142;50.894;6.052;2023-12-07T06:58:00;0.47;84.47
80743;SHT31;70142;50.894;6.052;2023-12-07T07:00:33;0.41;82.87
80743;SHT31;70142;50.894;6.052;2023-12-07T07:03:08;0.34;82.53
80743;SHT31;70142;50.894;6.052;2023-12-07T07:05:42;0.33;82.00
80743;SHT31;70142;50.894;6.052;2023-12-07T07:08:15;0.34;82.22
80743;SHT31;70142;50.894;6.052;2023-12-07T07:10:50;0.44;81.97
80743;SHT31;70142;50.894;6.052;2023-12-07T07:13:25;0.48;82.14
80743;SHT31;70142;50.894;6.052;2023-12-07T07:16:00;0.56;82.12
80743;SHT31;70142;50.894;6.052;2023-12-07T07:18:34;0.46;81.33
80743;SHT31;70142;50.894;6.052;2023-12-07T07:21:08;0.36;81.80
80743;SHT31;70142;50.894;6.052;2023-12-07T07:23:42;0.44;82.12
80743;SHT31;70142;50.894;6.052;2023-12-07T07:26:15;0.44;82.03
80743;SHT31;70142;50.894;6.052;2023-12-07T07:28:49;0.69;81.68
80743;SHT31;70142;50.894;6.052;2023-12-07T07:31:23;0.74;81.27
80743;SHT31;70142;50.894;6.052;2023-12-07T07:33:56;0.60;80.94
80743;SHT31;70142;50.894;6.052;2023-12-07T07:36:34;0.67;81.13
80743;SHT31;70142;50.894;6.052;2023-12-07T07:39:07;0.67;80.87
80743;SHT31;70142;50.894;6.052;2023-12-07T07:41:40;0.62;80.91
80743;SHT31;70142;50.894;6.052;2023-12-07T07:44:14;0.46;81.32
80743;SHT31;70142;50.894;6.052;2023-12-07T07:46:47;0.54;82.18
80743;SHT31;70142;50.894;6.052;2023-12-07T07:49:23;0.48;82.27
80743;SHT31;70142;50.894;6.052;2023-12-07T07:51:57;0.46;82.35
80743;SHT31;70142;50.894;6.052;2023-12-07T07:54:31;0.48;82.39
80743;SHT31;70142;50.894;6.052;2023-12-07T07:57:04;0.56;81.76
80743;SHT31;70142;50.894;6.052;2023-12-07T07:59:38;0.57;81.45
80743;SHT31;70142;50.894;6.052;2023-12-07T08:02:11;0.53;81.40
80743;SHT31;70142;50.894;6.052;2023-12-07T08:04:44;0.64;80.99
80743;SHT31;70142;50.894;6.052;2023-12-07T08:07:19;0.75;80.88
80743;SHT31;70142;50.894;6.052;2023-12-07T08:09:52;0.77;81.06
80743;SHT31;70142;50.894;6.052;2023-12-07T08:12:25;0.71;80.93
80743;SHT31;70142;50.894;6.052;2023-12-07T08:14:59;0.72;81.08
80743;SHT31;70142;50.894;6.052;2023-12-07T08:17:32;0.71;81.05
80743;SHT31;70142;50.894;6.052;2023-12-07T08:20:07;0.82;81.31
80743;SHT31;70142;50.894;6.052;2023-12-07T08:22:42;0.92;80.83
80743;SHT31;70142;50.894;6.052;2023-12-07T08:25:17;1.05;80.70
80743;SHT31;70142;50.894;6.052;2023-12-07T08:27:51;1.08;80.64
80743;SHT31;70142;50.894;6.052;2023-12-07T08:30:24;1.12;80.57
80743;SHT31;70142;50.894;6.052;2023-12-07T08:32:57;1.18;80.89
80743;SHT31;70142;50.894;6.052;2023-12-07T08:35:31;1.13;80.67
80743;SHT31;70142;50.894;6.052;2023-12-07T08:38:05;1.11;80.44
80743;SHT31;70142;50.894;6.052;2023-12-07T08:40:38;1.18;80.63
80743;SHT31;70142;50.894;6.052;2023-12-07T08:43:12;1.20;80.94
80743;SHT31;70142;50.894;6.052;2023-12-07T08:45:45;1.26;80.53
80743;SHT31;70142;50.894;6.052;2023-12-07T08:48:19;1.16;80.71
80743;SHT31;70142;50.894;6.052;2023-12-07T08:50:52;1.29;80.85
80743;SHT31;70142;50.894;6.052;2023-12-07T08:53:27;1.36;80.87
80743;SHT31;70142;50.894;6.052;2023-12-07T08:56:00;1.42;80.75
80743;SHT31;70142;50.894;6.052;2023-12-07T08:58:33;1.46;81.34
80743;SHT31;70142;50.894;6.052;2023-12-07T09:01:07;1.38;81.71
80743;SHT31;70142;50.894;6.052;2023-12-07T09:03:50;1.32;81.90
80743;SHT31;70142;50.894;6.052;2023-12-07T09:06:23;1.38;81.82
80743;SHT31;70142;50.894;6.052;2023-12-07T09:09:00;1.53;81.77
80743;SHT31;70142;50.894;6.052;2023-12-07T09:11:33;1.60;81.69
80743;SHT31;70142;50.894;6.052;2023-12-07T09:14:07;1.53;81.85
80743;SHT31;70142;50.894;6.052;2023-12-07T09:16:43;1.56;83.25
80743;SHT31;70142;50.894;6.052;2023-12-07T09:19:17;1.70;84.07
80743;SHT31;70142;50.894;6.052;2023-12-07T09:21:50;1.90;83.83
80743;SHT31;70142;50.894;6.052;2023-12-07T09:24:25;1.95;83.41
80743;SHT31;70142;50.894;6.052;2023-12-07T09:26:59;2.17;83.10
80743;SHT31;70142;50.894;6.052;2023-12-07T09:29:32;2.34;82.52
80743;SHT31;70142;50.894;6.052;2023-12-07T09:32:06;2.29;82.69
80743;SHT31;70142;50.894;6.052;2023-12-07T09:34:40;2.38;83.29
80743;SHT31;70142;50.894;6.052;2023-12-07T09:37:13;2.34;83.36
80743;SHT31;70142;50.894;6.052;2023-12-07T09:39:48;2.50;83.58
80743;SHT31;70142;50.894;6.052;2023-12-07T09:42:21;2.60;83.63
80743;SHT31;70142;50.894;6.052;2023-12-07T09:45:03;2.68;83.56
80743;SHT31;70142;50.894;6.052;2023-12-07T09:47:37;2.78;83.48
80743;SHT31;70142;50.894;6.052;2023-12-07T09:50:12;2.90;83.57
80743;SHT31;70142;50.894;6.052;2023-12-07T09:52:47;2.97;83.27
80743;SHT31;70142;50.894;6.052;2023-12-07T09:55:36;3.11;83.13
80743;SHT31;70142;50.894;6.052;2023-12-07T09:58:10;3.14;82.56
80743;SHT31;70142;50.894;6.052;2023-12-07T10:00:47;3.19;82.55
80743;SHT31;70142;50.894;6.052;2023-12-07T10:03:23;3.31;82.33
80743;SHT31;70142;50.894;6.052;2023-12-07T10:05:58;3.51;82.34
80743;SHT31;70142;50.894;6.052;2023-12-07T10:08:33;3.74;81.82
80743;SHT31;70142;50.894;6.052;2023-12-07T10:11:11;3.75;80.93
80743;SHT31;70142;50.894;6.052;2023-12-07T10:13:45;4.12;81.79
80743;SHT31;70142;50.894;6.052;2023-12-07T10:16:19;5.11;78.96
80743;SHT31;70142;50.894;6.052;2023-12-07T10:18:53;5.89;77.45
80743;SHT31;70142;50.894;6.052;2023-12-07T10:21:31;6.48;74.20
80743;SHT31;70142;50.894;6.052;2023-12-07T10:24:05;6.65;72.31
80743;SHT31;70142;50.894;6.052;2023-12-07T10:26:40;6.63;72.86
80743;SHT31;70142;50.894;6.052;2023-12-07T10:29:17;6.79;72.26
80743;SHT31;70142;50.894;6.052;2023-12-07T10:32:04;6.95;72.31
80743;SHT31;70142;50.894;6.052;2023-12-07T10:34:37;7.01;72.09
80743;SHT31;70142;50.894;6.052;2023-12-07T10:37:11;7.26;70.60
80743;SHT31;70142;50.894;6.052;2023-12-07T10:39:44;7.36;69.36
80743;SHT31;70142;50.894;6.052;2023-12-07T10:42:24;7.32;69.50
80743;SHT31;70142;50.894;6.052;2023-12-07T10:45:04;7.42;69.09
80743;SHT31;70142;50.894;6.052;2023-12-07T10:47:38;7.54;68.26
80743;SHT31;70142;50.894;6.052;2023-12-07T10:50:16;7.73;66.62
80743;SHT31;70142;50.894;6.052;2023-12-07T10:52:59;7.78;67.01
80743;SHT31;70142;50.894;6.052;2023-12-07T10:55:42;7.90;67.10
80743;SHT31;70142;50.894;6.052;2023-12-07T10:58:21;8.12;66.17
80743;SHT31;70142;50.894;6.052;2023-12-07T11:00:57;8.42;66.28
80743;SHT31;70142;50.894;6.052;2023-12-07T11:03:36;8.73;65.06
80743;SHT31;70142;50.894;6.052;2023-12-07T11:06:10;8.60;64.81
80743;SHT31;70142;50.894;6.052;2023-12-07T11:08:47;8.75;64.56
80743;SHT31;70142;50.894;6.052;2023-12-07T11:11:29;8.50;64.88
80743;SHT31;70142;50.894;6.052;2023-12-07T11:14:06;8.39;64.91
80743;SHT31;70142;50.894;6.052;2023-12-07T11:16:45;8.42;64.67
80743;SHT31;70142;50.894;6.052;2023-12-07T11:19:43;8.45;63.86
80743;SHT31;70142;50.894;6.052;2023-12-07T11:22:20;8.38;64.47
80743;SHT31;70142;50.894;6.052;2023-12-07T11:24:56;8.42;64.87
80743;SHT31;70142;50.894;6.052;2023-12-07T11:27:33;8.50;64.44
80743;SHT31;70142;50.894;6.052;2023-12-07T11:30:09;8.56;64.31
80743;SHT31;70142;50.894;6.052;2023-12-07T11:32:43;8.48;63.68
80743;SHT31;70142;50.894;6.052;2023-12-07T11:35:17;7.93;64.59
80743;SHT31;70142;50.894;6.052;2023-12-07T11:38:05;7.80;65.68
80743;SHT31;70142;50.894;6.052;2023-12-07T11:40:41;7.90;66.19
80743;SHT31;70142;50.894;6.052;2023-12-07T11:43:19;8.11;64.88
80743;SHT31;70142;50.894;6.052;2023-12-07T11:46:06;8.37;63.51
80743;SHT31;70142;50.894;6.052;2023-12-07T11:48:52;8.70;63.17
80743;SHT31;70142;50.894;6.052;2023-12-07T11:51:29;9.09;61.65
80743;SHT31;70142;50.894;6.052;2023-12-07T11:54:02;8.97;61.78
80743;SHT31;70142;50.894;6.052;2023-12-07T11:56:36;9.04;61.90
80743;SHT31;70142;50.894;6.052;2023-12-07T11:59:09;9.23;61.79
80743;SHT31;70142;50.894;6.052;2023-12-07T12:01:47;9.38;60.49
80743;SHT31;70142;50.894;6.052;2023-12-07T12:04:22;9.07;61.14
80743;SHT31;70142;50.894;6.052;2023-12-07T12:06:55;8.77;61.51
80743;SHT31;70142;50.894;6.052;2023-12-07T12:09:28;8.58;62.43
80743;SHT31;70142;50.894;6.052;2023-12-07T12:12:04;8.11;63.06
80743;SHT31;70142;50.894;6.052;2023-12-07T12:14:38;7.71;64.08
80743;SHT31;70142;50.894;6.052;2023-12-07T12:17:16;7.47;63.70
80743;SHT31;70142;50.894;6.052;2023-12-07T12:19:49;7.22;63.59
80743;SHT31;70142;50.894;6.052;2023-12-07T12:22:26;7.11;64.26
80743;SHT31;70142;50.894;6.052;2023-12-07T12:25:00;7.06;64.36
80743;SHT31;70142;50.894;6.052;2023-12-07T12:27:34;6.89;64.52
80743;SHT31;70142;50.894;6.052;2023-12-07T12:30:08;6.89;63.92
80743;SHT31;70142;50.894;6.052;2023-12-07T12:32:45;6.88;64.32
80743;SHT31;70142;50.894;6.052;2023-12-07T12:35:19;6.85;63.60
80743;SHT31;70142;50.894;6.052;2023-12-07T12:37:52;6.81;62.09
80743;SHT31;70142;50.894;6.052;2023-12-07T12:40:28;6.84;63.65
80743;SHT31;70142;50.894;6.052;2023-12-07T12:43:04;6.85;62.80
80743;SHT31;70142;50.894;6.052;2023-12-07T12:45:38;6.82;62.95
80743;SHT31;70142;50.894;6.052;2023-12-07T12:48:13;6.89;63.01
80743;SHT31;70142;50.894;6.052;2023-12-07T12:50:46;6.95;63.47
80743;SHT31;70142;50.894;6.052;2023-12-07T12:53:20;6.93;63.23
80743;SHT31;70142;50.894;6.052;2023-12-07T12:55:55;6.96;64.21
80743;SHT31;70142;50.894;6.052;2023-12-07T12:58:29;7.05;64.21
80743;SHT31;70142;50.894;6.052;2023-12-07T13:01:03;7.02;64.58
80743;SHT31;70142;50.894;6.052;2023-12-07T13:03:38;6.99;63.86
80743;SHT31;70142;50.894;6.052;2023-12-07T13:06:11;7.06;63.54
80743;SHT31;70142;50.894;6.052;2023-12-07T13:08:47;6.96;63.45
80743;SHT31;70142;50.894;6.052;2023-12-07T13:11:21;6.95;64.08
80743;SHT31;70142;50.894;6.052;2023-12-07T13:13:54;6.93;63.80
80743;SHT31;70142;50.894;6.052;2023-12-07T13:16:27;6.92;63.89
80743;SHT31;70142;50.894;6.052;2023-12-07T13:19:02;6.85;64.90
80743;SHT31;70142;50.894;6.052;2023-12-07T13:21:35;6.82;63.82
80743;SHT31;70142;50.894;6.052;2023-12-07T13:24:08;6.71;64.09
80743;SHT31;70142;50.894;6.052;2023-12-07T13:26:46;6.68;63.48
80743;SHT31;70142;50.894;6.052;2023-12-07T13:29:19;6.65;63.18
80743;SHT31;70142;50.894;6.052;2023-12-07T13:32:06;6.59;63.54
80743;SHT31;70142;50.894;6.052;2023-12-07T13:34:41;6.57;65.29
80743;SHT31;70142;50.894;6.052;2023-12-07T13:37:14;6.57;67.55
80743;SHT31;70142;50.894;6.052;2023-12-07T13:39:48;6.57;68.55
80743;SHT31;70142;50.894;6.052;2023-12-07T13:42:25;6.52;69.24
80743;SHT31;70142;50.894;6.052;2023-12-07T13:44:59;6.47;69.33
80743;SHT31;70142;50.894;6.052;2023-12-07T13:47:32;6.48;70.08
80743;SHT31;70142;50.894;6.052;2023-12-07T13:50:10;6.45;70.24
80743;SHT31;70142;50.894;6.052;2023-12-07T13:52:46;6.31;70.85
80743;SHT31;70142;50.894;6.052;2023-12-07T13:55:19;6.20;71.55
80743;SHT31;70142;50.894;6.052;2023-12-07T13:57:52;6.09;71.94
80743;SHT31;70142;50.894;6.052;2023-12-07T14:00:28;5.95;72.76
80743;SHT31;70142;50.894;6.052;2023-12-07T14:03:02;5.75;73.63
80743;SHT31;70142;50.894;6.052;2023-12-07T14:05:37;5.69;74.00
80743;SHT31;70142;50.894;6.052;2023-12-07T14:08:11;5.62;74.19
80743;SHT31;70142;50.894;6.052;2023-12-07T14:10:45;5.56;74.31
80743;SHT31;70142;50.894;6.052;2023-12-07T14:13:19;5.51;74.53
80743;SHT31;70142;50.894;6.052;2023-12-07T14:15:52;5.49;74.61
80743;SHT31;70142;50.894;6.052;2023-12-07T14:18:30;5.39;74.77
80743;SHT31;70142;50.894;6.052;2023-12-07T14:21:05;5.39;75.00
80743;SHT31;70142;50.894;6.052;2023-12-07T14:23:58;5.39;75.05
80743;SHT31;70142;50.894;6.052;2023-12-07T14:26:31;5.35;75.21
80743;SHT31;70142;50.894;6.052;2023-12-07T14:29:05;5.31;75.54
80743;SHT31;70142;50.894;6.052;2023-12-07T14:31:37;5.27;75.64
80743;SHT31;70142;50.894;6.052;2023-12-07T14:34:11;5.22;75.67
80743;SHT31;70142;50.894;6.052;2023-12-07T14:36:53;5.21;75.54
80743;SHT31;70142;50.894;6.052;2023-12-07T14:39:26;5.28;75.43
80743;SHT31;70142;50.894;6.052;2023-12-07T14:42:00;5.25;75.35
80743;SHT31;70142;50.894;6.052;2023-12-07T14:44:33;5.24;75.16
80743;SHT31;70142;50.894;6.052;2023-12-07T14:47:07;5.18;75.32
80743;SHT31;70142;50.894;6.052;2023-12-07T14:49:40;5.17;75.18
80743;SHT31;70142;50.894;6.052;2023-12-07T14:52:14;5.18;75.05
80743;SHT31;70142;50.894;6.052;2023-12-07T14:54:48;5.15;75.08
80743;SHT31;70142;50.894;6.052;2023-12-07T14:57:21;5.11;74.75
80743;SHT31;70142;50.894;6.052;2023-12-07T14:59:54;5.11;74.36
80743;SHT31;70142;50.894;6.052;2023-12-07T15:02:30;5.05;74.32
80743;SHT31;70142;50.894;6.052;2023-12-07T15:05:03;5.02;74.36
80743;SHT31;70142;50.894;6.052;2023-12-07T15:07:38;5.02;74.53
80743;SHT31;70142;50.894;6.052;2023-12-07T15:10:12;4.97;74.43
80743;SHT31;70142;50.894;6.052;2023-12-07T15:12:45;5.01;74.12
80743;SHT31;70142;50.894;6.052;2023-12-07T15:15:18;5.00;74.10
80743;SHT31;70142;50.894;6.052;2023-12-07T15:17:52;4.94;73.98
80743;SHT31;70142;50.894;6.052;2023-12-07T15:20:27;4.91;73.92
80743;SHT31;70142;50.894;6.052;2023-12-07T15:23:02;4.83;74.02
80743;SHT31;70142;50.894;6.052;2023-12-07T15:25:35;4.77;73.81
80743;SHT31;70142;50.894;6.052;2023-12-07T15:28:08;4.76;74.49
80743;SHT31;70142;50.894;6.052;2023-12-07T15:30:43;4.80;74.35
80743;SHT31;70142;50.894;6.052;2023-12-07T15:33:17;4.81;73.64
80743;SHT31;70142;50.894;6.052;2023-12-07T15:35:50;4.77;73.56
80743;SHT31;70142;50.894;6.052;2023-12-07T15:38:27;4.70;73.27
80743;SHT31;70142;50.894;6.052;2023-12-07T15:41:00;4.64;73.35
80743;SHT31;70142;50.894;6.052;2023-12-07T15:43:34;4.52;73.53
80743;SHT31;70142;50.894;6.052;2023-12-07T15:46:07;4.47;73.86
80743;SHT31;70142;50.894;6.052;2023-12-07T15:48:41;4.43;74.00
80743;SHT31;70142;50.894;6.052;2023-12-07T15:51:14;4.52;73.16
80743;SHT31;70142;50.894;6.052;2023-12-07T15:53:48;4.47;73.27
80743;SHT31;70142;50.894;6.052;2023-12-07T15:56:24;4.43;73.00
80743;SHT31;70142;50.894;6.052;2023-12-07T15:59:03;4.50;72.80
80743;SHT31;70142;50.894;6.052;2023-12-07T16:01:36;4.52;72.28
80743;SHT31;70142;50.894;6.052;2023-12-07T16:04:11;4.49;72.63
80743;SHT31;70142;50.894;6.052;2023-12-07T16:06:53;4.46;72.72
80743;SHT31;70142;50.894;6.052;2023-12-07T16:09:27;4.39;73.33
80743;SHT31;70142;50.894;6.052;2023-12-07T16:12:04;4.36;73.40
80743;SHT31;70142;50.894;6.052;2023-12-07T16:14:39;4.30;73.18
80743;SHT31;70142;50.894;6.052;2023-12-07T16:17:12;4.33;73.43
80743;SHT31;70142;50.894;6.052;2023-12-07T16:19:45;4.30;73.11
80743;SHT31;70142;50.894;6.052;2023-12-07T16:22:19;4.35;72.88
80743;SHT31;70142;50.894;6.052;2023-12-07T16:24:53;4.32;73.02
80743;SHT31;70142;50.894;6.052;2023-12-07T16:27:30;4.26;73.51
80743;SHT31;70142;50.894;6.052;2023-12-07T16:30:05;4.25;73.31
80743;SHT31;70142;50.894;6.052;2023-12-07T16:32:40;4.26;73.20